sensor_id;sensor_type;location;lat;lon;timestamp;pressure;altitude;pressure_sealevel;temperature;humidity
49999;BME280;68071;45.062;7.356;2024-03-23T00:54:03;94964.13;;;8.99;100.00
49999;BME280;68071;45.062;7.356;2024-03-23T00:57:07;94958.81;;;8.59;100.00
49999;BME280;68071;45.062;7.356;2024-03-23T01:00:11;94960.41;;;8.57;100.00
49999;BME280;68071;45.062;7.356;2024-03-23T01:03:16;94969.47;;;8.43;100.00
49999;BME280;68071;45.062;7.356;2024-03-23T01:06:19;94954.97;;;8.24;100.00
49999;BME280;68071;45.062;7.356;2024-03-23T01:09:24;94952.22;;;8.24;100.00
49999;BME280;68071;45.062;7.356;2024-03-23T01:12:29;94950.31;;;7.88;100.00
49999;BME280;68071;45.062;7.356;2024-03-23T01:15:33;94941.91;;;8.57;100.00
49999;BME280;68071;45.062;7.356;2024-03-23T01:18:37;94939.16;;;8.54;100.00
49999;BME280;68071;45.062;7.356;2024-03-23T01:21:41;94937.66;;;8.27;100.00
49999;BME280;68071;45.062;7.356;2024-03-23T01:24:47;94942.41;;;8.16;100.00
49999;BME280;68071;45.062;7.356;2024-03-23T01:27:51;94938.13;;;7.93;100.00
49999;BME280;68071;45.062;7.356;2024-03-23T01:30:55;94930.56;;;8.23;100.00
49999;BME280;68071;45.062;7.356;2024-03-23T01:33:59;94932.13;;;8.38;100.00
49999;BME280;68071;45.062;7.356;2024-03-23T01:37:03;94929.66;;;8.62;100.00
49999;BME280;68071;45.062;7.356;2024-03-23T01:40:09;94927.47;;;8.21;100.00
49999;BME280;68071;45.062;7.356;2024-03-23T01:43:13;94927.06;;;8.15;100.00
49999;BME280;68071;45.062;7.356;2024-03-23T01:46:17;94921.66;;;7.75;100.00
49999;BME280;68071;45.062;7.356;2024-03-23T01:49:22;94921.25;;;7.73;100.00
49999;BME280;68071;45.062;7.356;2024-03-23T01:52:29;94927.13;;;7.90;100.00
49999;BME280;68071;45.062;7.356;2024-03-23T01:55:34;94916.50;;;7.92;100.00
49999;BME280;68071;45.062;7.356;2024-03-23T01:58:43;94916.56;;;7.52;100.00
49999;BME280;68071;45.062;7.356;2024-03-23T02:01:46;94912.53;;;8.11;100.00
49999;BME280;68071;45.062;7.356;2024-03-23T02:04:52;94903.97;;;8.87;100.00
49999;BME280;68071;45.062;7.356;2024-03-23T02:07:56;94906.16;;;8.32;100.00
49999;BME280;68071;45.062;7.356;2024-03-23T02:11:00;94898.69;;;8.29;100.00
49999;BME280;68071;45.062;7.356;2024-03-23T02:14:05;94898.81;;;7.85;100.00
49999;BME280;68071;45.062;7.356;2024-03-23T02:17:09;94907.53;;;7.59;100.00
49999;BME280;68071;45.062;7.356;2024-03-23T02:20:13;94892.91;;;8.01;100.00
49999;BME280;68071;45.062;7.356;2024-03-23T02:23:17;94889.44;;;7.72;100.00
49999;BME280;68071;45.062;7.356;2024-03-23T02:26:22;94882.38;;;7.49;100.00
49999;BME280;68071;45.062;7.356;2024-03-23T02:29:26;94885.91;;;7.71;100.00
49999;BME280;68071;45.062;7.356;2024-03-23T02:32:31;94880.03;;;7.55;100.00
49999;BME280;68071;45.062;7.356;2024-03-23T02:35:35;94863.84;;;7.93;100.00
49999;BME280;68071;45.062;7.356;2024-03-23T02:38:39;94866.31;;;7.33;100.00
49999;BME280;68071;45.062;7.356;2024-03-23T02:41:43;94867.31;;;8.08;100.00
49999;BME280;68071;45.062;7.356;2024-03-23T02:44:47;94867.31;;;8.12;100.00
49999;BME280;68071;45.062;7.356;2024-03-23T02:47:51;94860.28;;;7.93;100.00
49999;BME280;68071;45.062;7.356;2024-03-23T02:50:55;94863.53;;;7.66;100.00
49999;BME280;68071;45.062;7.356;2024-03-23T02:53:59;94856.00;;;7.88;100.00
49999;BME280;68071;45.062;7.356;2024-03-23T02:57:04;94856.19;;;8.37;100.00
49999;BME280;68071;45.062;7.356;2024-03-23T03:00:08;94852.38;;;8.09;100.00
49999;BME280;68071;45.062;7.356;2024-03-23T03:03:15;94848.13;;;7.90;100.00
49999;BME280;68071;45.062;7.356;2024-03-23T03:06:23;94851.25;;;7.96;100.00
49999;BME280;68071;45.062;7.356;2024-03-23T03:09:27;94848.88;;;8.01;100.00
49999;BME280;68071;45.062;7.356;2024-03-23T03:12:31;94843.69;;;8.18;100.00
49999;BME280;68071;45.062;7.356;2024-03-23T03:15:36;94844.44;;;8.26;100.00
49999;BME280;68071;45.062;7.356;2024-03-23T03:18:40;94832.69;;;8.14;100.00
49999;BME280;68071;45.062;7.356;2024-03-23T03:21:45;94828.81;;;7.97;100.00
49999;BME280;68071;45.062;7.356;2024-03-23T03:24:48;94831.97;;;8.03;100.00
49999;BME280;68071;45.062;7.356;2024-03-23T03:27:53;94826.00;;;8.15;100.00
49999;BME280;68071;45.062;7.356;2024-03-23T03:30:57;94827.59;;;8.13;100.00
49999;BME280;68071;45.062;7.356;2024-03-23T03:34:01;94830.41;;;8.02;100.00
49999;BME280;68071;45.062;7.356;2024-03-23T03:37:06;94824.03;;;8.16;100.00
49999;BME280;68071;45.062;7.356;2024-03-23T03:40:11;94824.94;;;7.91;100.00
49999;BME280;68071;45.062;7.356;2024-03-23T03:43:16;94827.34;;;7.71;100.00
49999;BME280;68071;45.062;7.356;2024-03-23T03:46:20;94819.81;;;7.90;100.00
49999;BME280;68071;45.062;7.356;2024-03-23T03:49:24;94812.19;;;8.23;100.00
49999;BME280;68071;45.062;7.356;2024-03-23T03:52:29;94816.25;;;7.96;100.00
49999;BME280;68071;45.062;7.356;2024-03-23T03:55:33;94825.75;;;7.70;100.00
49999;BME280;68071;45.062;7.356;2024-03-23T03:58:37;94819.91;;;7.61;100.00
49999;BME280;68071;45.062;7.356;2024-03-23T04:18:55;94790.34;;;7.90;100.00
49999;BME280;68071;45.062;7.356;2024-03-23T04:22:00;94783.00;;;7.54;100.00
49999;BME280;68071;45.062;7.356;2024-03-23T04:25:04;94787.38;;;8.30;100.00
49999;BME280;68071;45.062;7.356;2024-03-23T04:28:10;94794.69;;;8.66;100.00
49999;BME280;68071;45.062;7.356;2024-03-23T04:31:14;94786.63;;;9.35;100.00
49999;BME280;68071;45.062;7.356;2024-03-23T04:34:18;94790.66;;;8.77;100.00
49999;BME280;68071;45.062;7.356;2024-03-23T04:37:22;94782.84;;;7.98;100.00
49999;BME280;68071;45.062;7.356;2024-03-23T04:40:27;94778.63;;;7.71;100.00
49999;BME280;68071;45.062;7.356;2024-03-23T04:43:31;94786.44;;;7.80;100.00
49999;BME280;68071;45.062;7.356;2024-03-23T04:46:34;94779.34;;;7.83;100.00
49999;BME280;68071;45.062;7.356;2024-03-23T04:49:39;94785.19;;;7.99;100.00
49999;BME280;68071;45.062;7.356;2024-03-23T04:52:43;94781.56;;;8.84;100.00
49999;BME280;68071;45.062;7.356;2024-03-23T04:55:47;94767.03;;;8.13;100.00
49999;BME280;68071;45.062;7.356;2024-03-23T04:58:51;94773.53;;;7.59;100.00
49999;BME280;68071;45.062;7.356;2024-03-23T05:01:55;94767.41;;;8.15;100.00
49999;BME280;68071;45.062;7.356;2024-03-23T05:04:59;94783.41;;;7.53;100.00
49999;BME280;68071;45.062;7.356;2024-03-23T05:08:04;94770.09;;;8.29;100.00
49999;BME280;68071;45.062;7.356;2024-03-23T05:11:08;94778.75;;;8.28;100.00
49999;BME280;68071;45.062;7.356;2024-03-23T05:14:15;94766.84;;;7.67;100.00
49999;BME280;68071;45.062;7.356;2024-03-23T05:17:20;94765.03;;;7.03;100.00
49999;BME280;68071;45.062;7.356;2024-03-23T05:20:23;94745.72;;;7.32;100.00
49999;BME280;68071;45.062;7.356;2024-03-23T05:23:29;94747.25;;;7.51;100.00
49999;BME280;68071;45.062;7.356;2024-03-23T05:26:33;94746.94;;;7.23;100.00
49999;BME280;68071;45.062;7.356;2024-03-23T05:29:38;94748.97;;;6.83;100.00
49999;BME280;68071;45.062;7.356;2024-03-23T05:32:41;94737.91;;;7.23;100.00
49999;BME280;68071;45.062;7.356;2024-03-23T05:35:46;94733.19;;;7.23;100.00
49999;BME280;68071;45.062;7.356;2024-03-23T05:38:51;94724.91;;;7.31;100.00
49999;BME280;68071;45.062;7.356;2024-03-23T05:41:55;94728.47;;;7.28;100.00
49999;BME280;68071;45.062;7.356;2024-03-23T05:45:00;94719.06;;;7.14;100.00
49999;BME280;68071;45.062;7.356;2024-03-23T05:48:04;94715.81;;;7.55;100.00
49999;BME280;68071;45.062;7.356;2024-03-23T05:51:08;94712.81;;;7.06;100.00
49999;BME280;68071;45.062;7.356;2024-03-23T05:54:13;94718.75;;;7.97;100.00
49999;BME280;68071;45.062;7.356;2024-03-23T05:57:17;94716.28;;;8.14;100.00
49999;BME280;68071;45.062;7.356;2024-03-23T06:00:22;94703.34;;;8.11;100.00
49999;BME280;68071;45.062;7.356;2024-03-23T06:03:30;94719.88;;;8.07;100.00
49999;BME280;68071;45.062;7.356;2024-03-23T06:06:34;94717.72;;;7.69;100.00
49999;BME280;68071;45.062;7.356;2024-03-23T06:09:38;94703.06;;;7.91;100.00
49999;BME280;68071;45.062;7.356;2024-03-23T06:12:42;94704.69;;;7.84;100.00
49999;BME280;68071;45.062;7.356;2024-03-23T06:15:46;94703.00;;;8.01;100.00
49999;BME280;68071;45.062;7.356;2024-03-23T06:18:51;94706.19;;;8.60;100.00
49999;BME280;68071;45.062;7.356;2024-03-23T06:21:54;94695.97;;;8.57;100.00
49999;BME280;68071;45.062;7.356;2024-03-23T06:24:58;94686.94;;;8.53;100.00
49999;BME280;68071;45.062;7.356;2024-03-23T06:28:02;94703.78;;;8.66;100.00
49999;BME280;68071;45.062;7.356;2024-03-23T06:31:11;94698.81;;;8.39;100.00
49999;BME280;68071;45.062;7.356;2024-03-23T06:34:15;94690.53;;;8.42;100.00
49999;BME280;68071;45.062;7.356;2024-03-23T06:37:19;94703.88;;;8.47;100.00
49999;BME280;68071;45.062;7.356;2024-03-23T06:40:24;94703.53;;;8.91;100.00
49999;BME280;68071;45.062;7.356;2024-03-23T06:43:28;94697.31;;;8.83;100.00
49999;BME280;68071;45.062;7.356;2024-03-23T06:46:32;94691.97;;;9.07;100.00
49999;BME280;68071;45.062;7.356;2024-03-23T06:49:36;94696.59;;;9.17;100.00
49999;BME280;68071;45.062;7.356;2024-03-23T06:52:40;94710.69;;;9.27;100.00
49999;BME280;68071;45.062;7.356;2024-03-23T06:55:50;94725.44;;;9.44;100.00
49999;BME280;68071;45.062;7.356;2024-03-23T06:58:54;94707.41;;;9.70;100.00
49999;BME280;68071;45.062;7.356;2024-03-23T07:01:58;94719.44;;;9.87;100.00
49999;BME280;68071;45.062;7.356;2024-03-23T07:05:03;94718.56;;;9.94;100.00
49999;BME280;68071;45.062;7.356;2024-03-23T07:08:07;94707.69;;;10.10;100.00
49999;BME280;68071;45.062;7.356;2024-03-23T07:11:12;94688.56;;;10.23;100.00
49999;BME280;68071;45.062;7.356;2024-03-23T07:14:16;94676.78;;;10.19;100.00
49999;BME280;68071;45.062;7.356;2024-03-23T07:17:20;94675.44;;;10.04;100.00
49999;BME280;68071;45.062;7.356;2024-03-23T07:20:25;94687.59;;;10.61;100.00
49999;BME280;68071;45.062;7.356;2024-03-23T07:23:29;94671.47;;;10.83;100.00
49999;BME280;68071;45.062;7.356;2024-03-23T07:26:33;94669.56;;;11.00;100.00
49999;BME280;68071;45.062;7.356;2024-03-23T07:29:36;94683.09;;;11.18;100.00
49999;BME280;68071;45.062;7.356;2024-03-23T07:32:44;94670.56;;;11.10;100.00
49999;BME280;68071;45.062;7.356;2024-03-23T07:35:48;94668.31;;;11.05;100.00
49999;BME280;68071;45.062;7.356;2024-03-23T07:38:52;94675.25;;;10.93;100.00
49999;BME280;68071;45.062;7.356;2024-03-23T07:41:57;94669.94;;;10.79;100.00
49999;BME280;68071;45.062;7.356;2024-03-23T07:45:01;94664.13;;;10.97;100.00
49999;BME280;68071;45.062;7.356;2024-03-23T07:48:05;94673.28;;;11.14;100.00
49999;BME280;68071;45.062;7.356;2024-03-23T07:51:22;94667.13;;;10.82;100.00
49999;BME280;68071;45.062;7.356;2024-03-23T07:54:30;94667.50;;;10.84;100.00
49999;BME280;68071;45.062;7.356;2024-03-23T08:02:53;94653.84;;;11.38;100.00
49999;BME280;68071;45.062;7.356;2024-03-23T08:05:58;94659.53;;;11.50;100.00
49999;BME280;68071;45.062;7.356;2024-03-23T08:09:09;94660.09;;;11.22;100.00
49999;BME280;68071;45.062;7.356;2024-03-23T08:12:13;94658.06;;;11.83;100.00
49999;BME280;68071;45.062;7.356;2024-03-23T08:15:17;94656.84;;;11.47;100.00
49999;BME280;68071;45.062;7.356;2024-03-23T08:18:22;94644.00;;;11.16;100.00
49999;BME280;68071;45.062;7.356;2024-03-23T08:21:26;94647.91;;;11.39;100.00
49999;BME280;68071;45.062;7.356;2024-03-23T08:24:30;94646.53;;;11.47;100.00
49999;BME280;68071;45.062;7.356;2024-03-23T08:27:45;94654.00;;;11.50;100.00
49999;BME280;68071;45.062;7.356;2024-03-23T08:30:56;94640.03;;;11.58;100.00
49999;BME280;68071;45.062;7.356;2024-03-23T08:34:00;94652.84;;;11.88;100.00
49999;BME280;68071;45.062;7.356;2024-03-23T08:37:07;94651.97;;;12.12;100.00
49999;BME280;68071;45.062;7.356;2024-03-23T08:40:11;94656.66;;;12.48;100.00
49999;BME280;68071;45.062;7.356;2024-03-23T08:43:18;94668.88;;;12.83;100.00
49999;BME280;68071;45.062;7.356;2024-03-23T08:46:22;94648.41;;;12.94;100.00
49999;BME280;68071;45.062;7.356;2024-03-23T08:49:35;94641.81;;;12.88;100.00
49999;BME280;68071;45.062;7.356;2024-03-23T08:52:50;94642.72;;;12.84;100.00
49999;BME280;68071;45.062;7.356;2024-03-23T08:55:58;94634.88;;;13.25;100.00
49999;BME280;68071;45.062;7.356;2024-03-23T08:59:02;94643.59;;;13.11;100.00
49999;BME280;68071;45.062;7.356;2024-03-23T09:02:13;94630.75;;;13.17;100.00
49999;BME280;68071;45.062;7.356;2024-03-23T09:05:28;94619.22;;;13.48;100.00
49999;BME280;68071;45.062;7.356;2024-03-23T09:09:04;94613.75;;;13.44;100.00
49999;BME280;68071;45.062;7.356;2024-03-23T09:12:11;94615.69;;;13.60;100.00
49999;BME280;68071;45.062;7.356;2024-03-23T09:15:15;94617.63;;;13.89;100.00
49999;BME280;68071;45.062;7.356;2024-03-23T09:18:22;94599.84;;;13.31;100.00
49999;BME280;68071;45.062;7.356;2024-03-23T09:21:27;94612.53;;;14.01;100.00
49999;BME280;68071;45.062;7.356;2024-03-23T09:24:34;94602.50;;;13.77;100.00
49999;BME280;68071;45.062;7.356;2024-03-23T09:27:39;94603.63;;;13.93;100.00
49999;BME280;68071;45.062;7.356;2024-03-23T09:30:43;94601.63;;;14.32;100.00
49999;BME280;68071;45.062;7.356;2024-03-23T09:33:47;94581.34;;;13.54;100.00
49999;BME280;68071;45.062;7.356;2024-03-23T09:36:55;94577.50;;;13.77;100.00
49999;BME280;68071;45.062;7.356;2024-03-23T09:39:59;94572.28;;;13.67;100.00
49999;BME280;68071;45.062;7.356;2024-03-23T09:43:06;94582.06;;;13.84;100.00
49999;BME280;68071;45.062;7.356;2024-03-23T09:46:10;94576.97;;;14.09;100.00
49999;BME280;68071;45.062;7.356;2024-03-23T09:49:14;94575.47;;;14.30;100.00
49999;BME280;68071;45.062;7.356;2024-03-23T09:52:18;94567.59;;;14.15;100.00
49999;BME280;68071;45.062;7.356;2024-03-23T09:55:22;94557.72;;;14.14;100.00
49999;BME280;68071;45.062;7.356;2024-03-23T09:58:27;94569.91;;;14.30;100.00
49999;BME280;68071;45.062;7.356;2024-03-23T10:01:35;94556.56;;;14.86;100.00
49999;BME280;68071;45.062;7.356;2024-03-23T10:04:42;94536.03;;;14.70;100.00
49999;BME280;68071;45.062;7.356;2024-03-23T10:07:51;94525.38;;;14.20;100.00
49999;BME280;68071;45.062;7.356;2024-03-23T10:10:55;94541.09;;;14.49;100.00
49999;BME280;68071;45.062;7.356;2024-03-23T10:13:59;94516.91;;;14.11;100.00
49999;BME280;68071;45.062;7.356;2024-03-23T10:17:22;94534.72;;;14.62;100.00
49999;BME280;68071;45.062;7.356;2024-03-23T10:20:35;94518.75;;;14.53;100.00
49999;BME280;68071;45.062;7.356;2024-03-23T10:24:12;94508.91;;;14.26;100.00
49999;BME280;68071;45.062;7.356;2024-03-23T10:27:21;94499.03;;;14.12;100.00
49999;BME280;68071;45.062;7.356;2024-03-23T10:30:32;94510.59;;;14.24;100.00
49999;BME280;68071;45.062;7.356;2024-03-23T10:38:04;94482.59;;;14.53;100.00
49999;BME280;68071;45.062;7.356;2024-03-23T10:41:11;94457.06;;;14.90;100.00
49999;BME280;68071;45.062;7.356;2024-03-23T10:44:36;94456.91;;;15.16;100.00
49999;BME280;68071;45.062;7.356;2024-03-23T10:48:50;94459.88;;;14.55;100.00
49999;BME280;68071;45.062;7.356;2024-03-23T10:52:09;94452.56;;;14.48;100.00
49999;BME280;68071;45.062;7.356;2024-03-23T10:55:23;94447.78;;;14.84;100.00
49999;BME280;68071;45.062;7.356;2024-03-23T10:58:36;94438.97;;;14.85;100.00
49999;BME280;68071;45.062;7.356;2024-03-23T11:02:00;94437.72;;;14.64;100.00
49999;BME280;68071;45.062;7.356;2024-03-23T11:05:49;94434.00;;;15.11;100.00
49999;BME280;68071;45.062;7.356;2024-03-23T11:08:56;94435.06;;;15.36;100.00
49999;BME280;68071;45.062;7.356;2024-03-23T11:12:29;94434.66;;;15.47;100.00
49999;BME280;68071;45.062;7.356;2024-03-23T11:16:12;94405.63;;;15.67;100.00
49999;BME280;68071;45.062;7.356;2024-03-23T11:20:32;94399.22;;;15.48;100.00
49999;BME280;68071;45.062;7.356;2024-03-23T11:24:14;94390.84;;;15.88;100.00
49999;BME280;68071;45.062;7.356;2024-03-23T11:27:28;94392.25;;;16.02;100.00
49999;BME280;68071;45.062;7.356;2024-03-23T11:30:35;94373.91;;;15.83;100.00
49999;BME280;68071;45.062;7.356;2024-03-23T11:33:41;94393.34;;;16.24;100.00
49999;BME280;68071;45.062;7.356;2024-03-23T11:37:10;94362.97;;;15.98;100.00
49999;BME280;68071;45.062;7.356;2024-03-23T11:40:32;94371.38;;;16.07;100.00
49999;BME280;68071;45.062;7.356;2024-03-23T11:44:25;94361.28;;;16.28;99.39
49999;BME280;68071;45.062;7.356;2024-03-23T11:47:33;94348.75;;;16.05;100.00
49999;BME280;68071;45.062;7.356;2024-03-23T11:50:41;94359.13;;;16.23;100.00
49999;BME280;68071;45.062;7.356;2024-03-23T11:54:21;94332.75;;;16.43;98.82
49999;BME280;68071;45.062;7.356;2024-03-23T11:57:30;94341.59;;;16.32;100.00
49999;BME280;68071;45.062;7.356;2024-03-23T12:01:04;94309.84;;;16.29;100.00
49999;BME280;68071;45.062;7.356;2024-03-23T12:04:11;94349.66;;;16.30;100.00
49999;BME280;68071;45.062;7.356;2024-03-23T12:07:19;94317.09;;;15.71;100.00
49999;BME280;68071;45.062;7.356;2024-03-23T12:10:24;94344.72;;;16.15;100.00
49999;BME280;68071;45.062;7.356;2024-03-23T12:13:28;94326.13;;;16.31;100.00
49999;BME280;68071;45.062;7.356;2024-03-23T12:16:36;94298.56;;;16.24;100.00
49999;BME280;68071;45.062;7.356;2024-03-23T12:19:42;94307.38;;;16.31;100.00
49999;BME280;68071;45.062;7.356;2024-03-23T12:22:49;94335.59;;;15.96;100.00
49999;BME280;68071;45.062;7.356;2024-03-23T12:25:56;94308.31;;;16.28;100.00
49999;BME280;68071;45.062;7.356;2024-03-23T12:29:00;94322.63;;;16.83;100.00
49999;BME280;68071;45.062;7.356;2024-03-23T12:32:04;94332.28;;;17.15;93.04
49999;BME280;68071;45.062;7.356;2024-03-23T12:35:09;94315.13;;;16.89;80.00
49999;BME280;68071;45.062;7.356;2024-03-23T12:38:16;94311.72;;;16.94;78.71
49999;BME280;68071;45.062;7.356;2024-03-23T12:41:40;94303.19;;;16.98;78.26
49999;BME280;68071;45.062;7.356;2024-03-23T12:44:44;94318.72;;;16.80;89.74
49999;BME280;68071;45.062;7.356;2024-03-23T12:47:48;94344.22;;;17.49;24.62
49999;BME280;68071;45.062;7.356;2024-03-23T12:50:54;94356.38;;;17.95;21.71
49999;BME280;68071;45.062;7.356;2024-03-23T12:53:59;94363.97;;;17.70;18.17
49999;BME280;68071;45.062;7.356;2024-03-23T12:57:03;94353.06;;;17.81;19.47
49999;BME280;68071;45.062;7.356;2024-03-23T13:00:08;94391.94;;;17.70;18.10
49999;BME280;68071;45.062;7.356;2024-03-23T13:03:15;94351.81;;;17.58;17.81
49999;BME280;68071;45.062;7.356;2024-03-23T13:06:20;94372.88;;;17.59;18.40
49999;BME280;68071;45.062;7.356;2024-03-23T13:09:24;94376.88;;;17.43;22.02
49999;BME280;68071;45.062;7.356;2024-03-23T13:12:29;94377.28;;;17.51;20.05
49999;BME280;68071;45.062;7.356;2024-03-23T13:15:33;94365.72;;;17.67;18.67
49999;BME280;68071;45.062;7.356;2024-03-23T13:18:37;94384.81;;;17.35;17.42
49999;BME280;68071;45.062;7.356;2024-03-23T13:21:41;94396.59;;;17.39;19.80
49999;BME280;68071;45.062;7.356;2024-03-23T13:24:45;94379.16;;;17.54;19.27
49999;BME280;68071;45.062;7.356;2024-03-23T13:27:49;94374.91;;;17.25;19.90
49999;BME280;68071;45.062;7.356;2024-03-23T13:30:55;94417.78;;;17.13;18.71
49999;BME280;68071;45.062;7.356;2024-03-23T13:33:59;94376.81;;;17.09;19.00
49999;BME280;68071;45.062;7.356;2024-03-23T13:37:03;94380.38;;;17.19;17.09
49999;BME280;68071;45.062;7.356;2024-03-23T13:40:08;94388.78;;;17.01;15.77
49999;BME280;68071;45.062;7.356;2024-03-23T13:43:12;94389.59;;;17.01;18.91
49999;BME280;68071;45.062;7.356;2024-03-23T13:50:34;94385.75;;;17.32;18.48
49999;BME280;68071;45.062;7.356;2024-03-23T13:53:38;94372.97;;;17.07;15.88
49999;BME280;68071;45.062;7.356;2024-03-23T13:56:42;94410.19;;;17.04;16.58
49999;BME280;68071;45.062;7.356;2024-03-23T13:59:48;94377.56;;;17.19;17.47
49999;BME280;68071;45.062;7.356;2024-03-23T14:02:52;94367.63;;;17.28;16.08
49999;BME280;68071;45.062;7.356;2024-03-23T14:06:00;94387.41;;;17.48;14.96
49999;BME280;68071;45.062;7.356;2024-03-23T14:09:07;94378.81;;;17.18;14.63
49999;BME280;68071;45.062;7.356;2024-03-23T14:12:13;94378.88;;;17.00;14.03
49999;BME280;68071;45.062;7.356;2024-03-23T14:15:17;94374.78;;;17.19;14.11
49999;BME280;68071;45.062;7.356;2024-03-23T14:18:22;94374.31;;;17.21;15.00
49999;BME280;68071;45.062;7.356;2024-03-23T14:21:26;94363.94;;;17.12;14.76
49999;BME280;68071;45.062;7.356;2024-03-23T14:24:33;94361.31;;;17.18;13.54
49999;BME280;68071;45.062;7.356;2024-03-23T14:27:37;94358.72;;;16.86;13.76
49999;BME280;68071;45.062;7.356;2024-03-23T14:30:41;94359.50;;;16.96;15.03
49999;BME280;68071;45.062;7.356;2024-03-23T14:33:45;94349.53;;;17.04;14.74
49999;BME280;68071;45.062;7.356;2024-03-23T14:36:52;94326.59;;;16.91;13.03
49999;BME280;68071;45.062;7.356;2024-03-23T14:39:56;94336.41;;;16.77;14.08
49999;BME280;68071;45.062;7.356;2024-03-23T14:43:01;94347.56;;;16.77;13.22
49999;BME280;68071;45.062;7.356;2024-03-23T14:46:13;94335.03;;;16.72;14.50
49999;BME280;68071;45.062;7.356;2024-03-23T14:49:18;94334.91;;;16.67;14.43
49999;BME280;68071;45.062;7.356;2024-03-23T14:52:22;94336.16;;;16.56;13.41
49999;BME280;68071;45.062;7.356;2024-03-23T14:55:26;94339.28;;;16.49;13.64
49999;BME280;68071;45.062;7.356;2024-03-23T14:58:30;94348.41;;;16.49;13.28
49999;BME280;68071;45.062;7.356;2024-03-23T15:01:34;94357.69;;;16.56;15.81
49999;BME280;68071;45.062;7.356;2024-03-23T15:04:38;94335.25;;;16.31;13.40
49999;BME280;68071;45.062;7.356;2024-03-23T15:07:45;94333.53;;;16.62;13.94
49999;BME280;68071;45.062;7.356;2024-03-23T15:10:50;94312.16;;;16.40;14.32
49999;BME280;68071;45.062;7.356;2024-03-23T15:13:54;94348.25;;;16.44;14.39
49999;BME280;68071;45.062;7.356;2024-03-23T15:16:58;94299.19;;;16.09;13.33
49999;BME280;68071;45.062;7.356;2024-03-23T15:20:02;94305.06;;;16.11;13.49
49999;BME280;68071;45.062;7.356;2024-03-23T15:23:09;94317.16;;;16.17;13.45
49999;BME280;68071;45.062;7.356;2024-03-23T15:26:15;94293.69;;;16.61;15.60
49999;BME280;68071;45.062;7.356;2024-03-23T15:29:23;94304.47;;;16.07;13.96
49999;BME280;68071;45.062;7.356;2024-03-23T15:32:27;94302.44;;;15.98;14.11
49999;BME280;68071;45.062;7.356;2024-03-23T15:35:31;94304.47;;;16.07;14.92
49999;BME280;68071;45.062;7.356;2024-03-23T15:38:35;94293.75;;;16.33;15.75
49999;BME280;68071;45.062;7.356;2024-03-23T15:41:39;94280.25;;;16.32;15.00
49999;BME280;68071;45.062;7.356;2024-03-23T15:44:43;94278.75;;;16.03;14.74
49999;BME280;68071;45.062;7.356;2024-03-23T15:47:50;94276.44;;;16.11;13.99
49999;BME280;68071;45.062;7.356;2024-03-23T15:50:54;94290.06;;;16.09;14.79
49999;BME280;68071;45.062;7.356;2024-03-23T15:53:59;94272.72;;;16.05;13.91
49999;BME280;68071;45.062;7.356;2024-03-23T15:57:03;94263.72;;;16.00;14.11
49999;BME280;68071;45.062;7.356;2024-03-23T16:00:08;94289.59;;;15.92;14.28
49999;BME280;68071;45.062;7.356;2024-03-23T16:03:16;94278.09;;;15.71;13.67
49999;BME280;68071;45.062;7.356;2024-03-23T16:06:20;94261.09;;;15.69;14.53
49999;BME280;68071;45.062;7.356;2024-03-23T16:09:24;94275.03;;;15.69;13.69
49999;BME280;68071;45.062;7.356;2024-03-23T16:12:28;94267.44;;;15.60;14.29
49999;BME280;68071;45.062;7.356;2024-03-23T16:15:33;94243.28;;;15.66;14.38
49999;BME280;68071;45.062;7.356;2024-03-23T16:18:38;94279.81;;;15.59;14.58
49999;BME280;68071;45.062;7.356;2024-03-23T16:21:45;94281.63;;;15.34;14.48
49999;BME280;68071;45.062;7.356;2024-03-23T16:24:49;94261.78;;;15.23;14.10
49999;BME280;68071;45.062;7.356;2024-03-23T16:27:53;94251.91;;;15.31;14.59
49999;BME280;68071;45.062;7.356;2024-03-23T16:31:01;94258.34;;;15.09;15.86
49999;BME280;68071;45.062;7.356;2024-03-23T16:34:06;94230.13;;;15.48;15.35
49999;BME280;68071;45.062;7.356;2024-03-23T16:37:10;94238.72;;;15.13;14.92
49999;BME280;68071;45.062;7.356;2024-03-23T16:40:14;94233.00;;;15.07;14.51
49999;BME280;68071;45.062;7.356;2024-03-23T16:43:19;94244.78;;;14.71;15.11
49999;BME280;68071;45.062;7.356;2024-03-23T16:46:23;94212.66;;;14.70;15.34
49999;BME280;68071;45.062;7.356;2024-03-23T16:49:27;94245.22;;;14.37;15.75
49999;BME280;68071;45.062;7.356;2024-03-23T16:52:31;94240.13;;;14.36;16.33
49999;BME280;68071;45.062;7.356;2024-03-23T16:55:35;94213.97;;;14.24;16.64
49999;BME280;68071;45.062;7.356;2024-03-23T16:58:39;94229.09;;;14.23;16.71
49999;BME280;68071;45.062;7.356;2024-03-23T17:01:44;94233.66;;;14.39;15.38
49999;BME280;68071;45.062;7.356;2024-03-23T17:04:48;94235.03;;;14.12;16.23
49999;BME280;68071;45.062;7.356;2024-03-23T17:07:51;94252.56;;;14.00;16.71
49999;BME280;68071;45.062;7.356;2024-03-23T17:11:03;94231.53;;;13.89;16.36
49999;BME280;68071;45.062;7.356;2024-03-23T17:14:12;94265.28;;;13.88;16.76
49999;BME280;68071;45.062;7.356;2024-03-23T17:17:19;94247.34;;;14.02;16.95
49999;BME280;68071;45.062;7.356;2024-03-23T17:20:22;94248.91;;;14.03;16.24
49999;BME280;68071;45.062;7.356;2024-03-23T17:23:31;94278.00;;;13.76;16.96
49999;BME280;68071;45.062;7.356;2024-03-23T17:26:37;94268.81;;;13.66;17.57
49999;BME280;68071;45.062;7.356;2024-03-23T17:29:41;94282.72;;;13.66;16.90
49999;BME280;68071;45.062;7.356;2024-03-23T17:32:46;94290.66;;;13.42;17.73
49999;BME280;68071;45.062;7.356;2024-03-23T17:35:50;94285.44;;;13.44;17.84
49999;BME280;68071;45.062;7.356;2024-03-23T17:38:54;94289.03;;;13.19;18.65
49999;BME280;68071;45.062;7.356;2024-03-23T17:41:59;94297.34;;;13.19;18.50
49999;BME280;68071;45.062;7.356;2024-03-23T17:45:04;94317.13;;;12.95;18.66
49999;BME280;68071;45.062;7.356;2024-03-23T17:48:12;94312.91;;;12.90;19.32
49999;BME280;68071;45.062;7.356;2024-03-23T17:51:16;94329.44;;;12.94;19.03